createdAt,value
2022-09-24T00:00:54.540Z,15.1
2022-09-24T00:01:57.915Z,15.2
2022-09-24T00:03:02.181Z,15.1
2022-09-24T00:04:06.302Z,15.2
2022-09-24T00:05:08.867Z,15.2
2022-09-24T00:06:11.304Z,15.2
2022-09-24T00:07:13.827Z,15.2
2022-09-24T00:08:15.800Z,15.2
2022-09-24T00:09:18.624Z,15.1
2022-09-24T00:10:21.504Z,15.2
2022-09-24T00:11:24.694Z,15.2
2022-09-24T00:12:28.059Z,15.1
2022-09-24T00:13:31.205Z,15.2
2022-09-24T00:14:34.895Z,15.1
2022-09-24T00:15:37.768Z,15.1
2022-09-24T00:16:41.659Z,15.1
2022-09-24T00:17:44.299Z,15.1
2022-09-24T00:18:47.688Z,15.2
2022-09-24T00:19:50.574Z,15.2
2022-09-24T00:20:54.130Z,15.2
2022-09-24T00:21:57.546Z,15.2
2022-09-24T00:23:00.797Z,15.2
2022-09-24T00:24:03.972Z,15.2
2022-09-24T00:25:07.340Z,15.1
2022-09-24T00:26:10.454Z,15.1
2022-09-24T00:27:13.249Z,15.2
2022-09-24T00:28:15.854Z,15.1
2022-09-24T00:29:19.233Z,15.1
2022-09-24T00:30:22.691Z,15.1
2022-09-24T00:31:26.674Z,15.1
2022-09-24T00:32:30.387Z,15.1
2022-09-24T00:33:34.114Z,15.1
2022-09-24T00:34:37.120Z,15.1
2022-09-24T00:35:39.939Z,15.1
2022-09-24T00:36:42.731Z,15.1
2022-09-24T00:37:45.530Z,15.1
2022-09-24T00:38:48.135Z,15.1
2022-09-24T00:39:50.927Z,15
2022-09-24T00:40:54.449Z,15.1
2022-09-24T00:41:57.923Z,15.1
2022-09-24T00:43:01.091Z,15
2022-09-24T00:44:04.239Z,15
2022-09-24T00:45:07.416Z,15
2022-09-24T00:46:09.887Z,15
2022-09-24T00:47:13.143Z,15
2022-09-24T00:48:17.004Z,15
2022-09-24T00:49:20.132Z,15
2022-09-24T00:50:23.250Z,15
2022-09-24T00:51:26.615Z,15
2022-09-24T00:52:29.969Z,15
2022-09-24T00:53:32.955Z,15
2022-09-24T00:54:36.024Z,15
2022-09-24T00:55:39.455Z,15
2022-09-24T00:56:42.247Z,15
2022-09-24T00:57:44.973Z,15
2022-09-24T00:58:48.492Z,15
2022-09-24T00:59:51.574Z,15
2022-09-24T01:00:54.601Z,15
2022-09-24T01:01:57.992Z,15
2022-09-24T01:03:01.979Z,14.9
2022-09-24T01:04:05.984Z,14.9
2022-09-24T01:05:09.615Z,14.9
2022-09-24T01:06:12.703Z,14.9
2022-09-24T01:07:16.433Z,14.9
2022-09-24T01:08:18.898Z,14.9
2022-09-24T01:09:22.034Z,14.9
2022-09-24T01:10:25.235Z,14.9
2022-09-24T01:11:28.401Z,15
2022-09-24T01:12:31.474Z,15
2022-09-24T01:13:34.275Z,15
2022-09-24T01:14:45.732Z,14.9
2022-09-24T01:15:48.510Z,14.9
2022-09-24T01:16:51.809Z,14.9
2022-09-24T01:17:54.518Z,14.9
2022-09-24T01:18:57.614Z,14.9
2022-09-24T01:20:01.689Z,14.9
2022-09-24T01:21:04.784Z,14.9
2022-09-24T01:22:08.241Z,14.9
2022-09-24T01:23:11.514Z,14.9
2022-09-24T01:24:15.227Z,14.9
2022-09-24T01:25:18.013Z,14.9
2022-09-24T01:26:20.411Z,14.9
2022-09-24T01:27:22.850Z,14.9
2022-09-24T01:28:26.013Z,14.9
2022-09-24T01:29:28.174Z,14.9
2022-09-24T01:30:31.357Z,14.9
2022-09-24T01:31:34.460Z,14.9
2022-09-24T01:32:37.866Z,14.9
2022-09-24T01:33:40.855Z,14.9
2022-09-24T01:34:43.922Z,14.9
2022-09-24T01:35:47.413Z,14.9
2022-09-24T01:36:49.857Z,14.9
2022-09-24T01:37:53.600Z,14.9
2022-09-24T01:38:55.767Z,14.9
2022-09-24T01:39:59.170Z,14.9
2022-09-24T01:41:02.007Z,14.9
2022-09-24T01:42:04.627Z,14.9
2022-09-24T01:43:07.446Z,14.9
2022-09-24T01:44:09.857Z,14.9
2022-09-24T01:45:12.925Z,14.9
2022-09-24T01:46:16.387Z,14.9
2022-09-24T01:47:19.219Z,14.9
2022-09-24T01:48:22.126Z,14.9
2022-09-24T01:49:25.143Z,14.9
2022-09-24T01:50:27.955Z,14.9
2022-09-24T01:51:32.015Z,14.9
2022-09-24T01:52:34.914Z,14.9
2022-09-24T01:53:38.012Z,14.9
2022-09-24T01:56:20.652Z,14.9
2022-09-24T01:57:23.917Z,14.9
2022-09-24T01:58:26.671Z,14.9
2022-09-24T01:59:29.802Z,14.9
2022-09-24T02:00:32.868Z,14.8
2022-09-24T02:01:36.529Z,14.8
2022-09-24T02:02:40.181Z,14.8
2022-09-24T02:03:42.722Z,14.8
2022-09-24T02:04:45.938Z,14.8
2022-09-24T02:05:49.085Z,14.8
2022-09-24T02:06:52.589Z,14.8
2022-09-24T02:07:56.053Z,14.8
2022-09-24T02:08:59.318Z,14.8
2022-09-24T02:10:02.401Z,14.8
2022-09-24T02:11:05.477Z,14.8
2022-09-24T02:12:07.916Z,14.8
2022-09-24T02:13:10.652Z,14.8
2022-09-24T02:14:13.719Z,14.8
2022-09-24T02:15:16.507Z,14.8
2022-09-24T02:16:19.570Z,14.8
2022-09-24T02:17:23.062Z,14.8
2022-09-24T02:18:26.497Z,14.8
2022-09-24T02:19:29.288Z,14.8
2022-09-24T02:20:32.457Z,14.8
2022-09-24T02:21:35.753Z,14.8
2022-09-24T02:22:39.558Z,14.8
2022-09-24T02:23:42.673Z,14.8
2022-09-24T02:24:45.777Z,14.8
2022-09-24T02:25:49.132Z,14.8
2022-09-24T02:26:51.916Z,14.8
2022-09-24T02:27:54.704Z,14.8
2022-09-24T02:28:57.506Z,14.8
2022-09-24T02:30:01.030Z,14.8
2022-09-24T02:31:04.534Z,14.8
2022-09-24T02:32:07.291Z,14.8
2022-09-24T02:33:10.446Z,14.8
2022-09-24T02:34:13.260Z,14.8
2022-09-24T02:35:16.333Z,14.8
2022-09-24T02:36:19.423Z,14.8
2022-09-24T02:37:22.412Z,14.8
2022-09-24T02:38:26.232Z,14.8
2022-09-24T02:39:29.510Z,14.8
2022-09-24T02:40:33.172Z,14.8
2022-09-24T02:41:36.543Z,14.8
2022-09-24T02:42:39.522Z,14.8
2022-09-24T02:43:42.838Z,14.8
2022-09-24T02:44:45.653Z,14.8
2022-09-24T02:45:48.765Z,14.8
2022-09-24T02:46:51.738Z,14.8
2022-09-24T02:47:54.282Z,14.8
2022-09-24T02:48:57.756Z,14.8
2022-09-24T02:50:01.000Z,14.8
2022-09-24T02:51:04.460Z,14.7
2022-09-24T02:52:06.981Z,14.8
2022-09-24T02:53:10.349Z,14.8
2022-09-24T02:54:13.858Z,14.8
2022-09-24T02:55:17.341Z,14.8
2022-09-24T02:56:20.353Z,14.8
2022-09-24T02:57:23.250Z,14.8
2022-09-24T02:58:26.948Z,14.8
2022-09-24T02:59:29.941Z,14.8
2022-09-24T03:00:33.395Z,14.8
2022-09-24T03:01:37.691Z,14.8
2022-09-24T03:02:42.078Z,14.8
2022-09-24T03:03:45.445Z,14.8
2022-09-24T03:04:48.602Z,14.8
2022-09-24T03:05:51.779Z,14.8
2022-09-24T03:06:54.793Z,14.8
2022-09-24T03:07:57.505Z,14.8
2022-09-24T03:09:00.389Z,14.8
2022-09-24T03:10:04.461Z,14.8
2022-09-24T03:11:07.637Z,14.8
2022-09-24T03:12:11.433Z,14.8
2022-09-24T03:13:14.509Z,14.8
2022-09-24T03:14:17.572Z,14.8
2022-09-24T03:15:20.643Z,14.8
2022-09-24T03:16:23.595Z,14.8
2022-09-24T03:17:26.603Z,14.8
2022-09-24T03:18:29.598Z,14.8
2022-09-24T03:19:33.027Z,14.8
2022-09-24T03:20:35.270Z,14.8
2022-09-24T03:21:37.422Z,14.8
2022-09-24T03:22:39.935Z,14.8
2022-09-24T03:23:43.376Z,14.8
2022-09-24T03:24:46.488Z,14.8
2022-09-24T03:25:49.731Z,14.8
2022-09-24T03:26:52.535Z,14.8
2022-09-24T03:27:55.165Z,14.8
2022-09-24T03:28:58.319Z,14.8
2022-09-24T03:30:01.763Z,14.8
2022-09-24T03:31:04.964Z,14.8
2022-09-24T03:32:08.073Z,14.8
2022-09-24T03:33:11.073Z,14.8
2022-09-24T03:34:14.121Z,14.8
2022-09-24T03:35:16.899Z,14.8
2022-09-24T03:36:19.723Z,14.8
2022-09-24T03:37:22.516Z,14.8
2022-09-24T03:38:25.354Z,14.8
2022-09-24T03:39:27.506Z,14.8
2022-09-24T03:40:30.437Z,14.8
2022-09-24T03:41:34.648Z,14.8
2022-09-24T03:42:38.673Z,14.8
2022-09-24T03:43:41.840Z,14.8
2022-09-24T03:44:45.849Z,14.8
2022-09-24T03:45:48.714Z,14.8
2022-09-24T03:46:52.216Z,14.8
2022-09-24T03:47:55.248Z,14.8
2022-09-24T03:48:58.774Z,14.8
2022-09-24T03:50:02.271Z,14.8
2022-09-24T03:51:05.413Z,14.8
2022-09-24T03:52:08.689Z,14.8
2022-09-24T03:53:10.720Z,14.8
2022-09-24T03:54:13.244Z,14.8
2022-09-24T03:55:16.232Z,14.8
2022-09-24T03:56:18.832Z,14.8
2022-09-24T03:57:22.967Z,14.8
2022-09-24T03:58:26.513Z,14.8
2022-09-24T03:59:29.616Z,14.8
2022-09-24T04:00:33.085Z,14.8
2022-09-24T04:01:43.893Z,14.8
2022-09-24T04:02:47.739Z,14.8
2022-09-24T04:03:51.476Z,14.8
2022-09-24T04:04:54.265Z,14.7
2022-09-24T04:05:57.429Z,14.7
2022-09-24T04:07:00.428Z,14.7
2022-09-24T04:08:03.790Z,14.7
2022-09-24T04:09:06.936Z,14.7
2022-09-24T04:10:10.047Z,14.8
2022-09-24T04:11:13.185Z,14.7
2022-09-24T04:12:16.576Z,14.7
2022-09-24T04:13:19.854Z,14.7
2022-09-24T04:14:22.750Z,14.8
2022-09-24T04:15:26.211Z,14.8
2022-09-24T04:16:29.575Z,14.7
2022-09-24T04:17:32.793Z,14.8
2022-09-24T04:18:40.107Z,14.7
2022-09-24T04:19:43.014Z,14.7
2022-09-24T04:20:45.727Z,14.8
2022-09-24T04:21:48.873Z,14.7
2022-09-24T04:22:51.892Z,14.7
2022-09-24T04:23:54.413Z,14.8
2022-09-24T04:24:56.862Z,14.7
2022-09-24T04:25:59.643Z,14.7
2022-09-24T04:27:01.905Z,14.7
2022-09-24T04:28:07.056Z,14.7
2022-09-24T04:29:10.552Z,14.7
2022-09-24T04:30:13.452Z,14.7
2022-09-24T04:31:16.907Z,14.7
2022-09-24T04:32:21.052Z,14.7
2022-09-24T04:33:23.475Z,14.7
2022-09-24T04:34:26.902Z,14.7
2022-09-24T04:35:29.507Z,14.7
2022-09-24T04:36:33.019Z,14.7
2022-09-24T04:37:35.890Z,14.7
2022-09-24T04:38:39.355Z,14.7
2022-09-24T04:39:42.723Z,14.7
2022-09-24T04:40:46.159Z,14.7
2022-09-24T04:41:49.306Z,14.7
2022-09-24T04:42:52.835Z,14.7
2022-09-24T04:43:56.581Z,14.6
2022-09-24T04:45:00.367Z,14.6
2022-09-24T04:46:04.320Z,14.6
2022-09-24T04:47:07.523Z,14.6
2022-09-24T04:48:10.335Z,14.7
2022-09-24T04:49:13.041Z,14.6
2022-09-24T04:50:15.792Z,14.6
2022-09-24T04:51:19.254Z,14.6
2022-09-24T04:52:21.763Z,14.6
2022-09-24T04:53:24.841Z,14.6
2022-09-24T04:54:28.282Z,14.6
2022-09-24T04:55:31.376Z,14.6
2022-09-24T04:56:34.348Z,14.6
2022-09-24T04:57:37.640Z,14.6
2022-09-24T04:58:40.247Z,14.6
2022-09-24T04:59:43.053Z,14.5
2022-09-24T05:00:46.558Z,14.5
2022-09-24T05:01:50.235Z,14.5
2022-09-24T05:02:54.166Z,14.5
2022-09-24T05:03:57.475Z,14.5
2022-09-24T05:05:00.973Z,14.5
2022-09-24T05:06:03.492Z,14.5
2022-09-24T05:07:06.960Z,14.5
2022-09-24T05:08:10.349Z,14.5
2022-09-24T05:09:14.370Z,14.5
2022-09-24T05:10:18.506Z,14.4
2022-09-24T05:11:21.957Z,14.4
2022-09-24T05:12:24.192Z,14.4
2022-09-24T05:13:27.712Z,14.5
2022-09-24T05:14:30.698Z,14.5
2022-09-24T05:15:33.714Z,14.4
2022-09-24T05:16:40.668Z,14.4
2022-09-24T05:17:43.794Z,14.4
2022-09-24T05:18:46.803Z,14.4
2022-09-24T05:19:49.517Z,14.4
2022-09-24T05:20:52.389Z,14.4
2022-09-24T05:21:55.838Z,14.4
2022-09-24T05:22:59.302Z,14.5
2022-09-24T05:24:02.042Z,14.4
2022-09-24T05:25:04.917Z,14.5
2022-09-24T05:26:08.144Z,14.5
2022-09-24T05:27:11.883Z,14.5
2022-09-24T05:28:16.015Z,14.5
2022-09-24T05:29:19.073Z,14.5
2022-09-24T05:30:22.818Z,14.5
2022-09-24T05:31:26.645Z,14.5
2022-09-24T05:32:31.078Z,14.5
2022-09-24T05:33:33.976Z,14.5
2022-09-24T05:34:37.621Z,14.5
2022-09-24T05:35:40.423Z,14.5
2022-09-24T05:36:43.497Z,14.5
2022-09-24T05:37:46.295Z,14.5
2022-09-24T05:38:49.187Z,14.5
2022-09-24T05:39:52.613Z,14.5
2022-09-24T05:40:55.547Z,14.5
2022-09-24T05:41:59.122Z,14.6
2022-09-24T05:43:01.362Z,14.5
2022-09-24T05:44:04.808Z,14.6
2022-09-24T05:45:07.243Z,14.6
2022-09-24T05:46:10.344Z,14.6
2022-09-24T05:47:13.472Z,14.6
2022-09-24T05:48:17.635Z,14.6
2022-09-24T05:49:20.380Z,14.6
2022-09-24T05:50:23.410Z,14.6
2022-09-24T05:51:26.222Z,14.6
2022-09-24T05:52:28.746Z,14.6
2022-09-24T05:53:32.041Z,14.6
2022-09-24T05:54:35.592Z,14.6
2022-09-24T05:55:38.941Z,14.7
2022-09-24T05:56:42.006Z,14.7
2022-09-24T05:57:45.083Z,14.7
2022-09-24T05:58:48.224Z,14.7
2022-09-24T05:59:51.098Z,14.7
2022-09-24T06:00:54.178Z,14.7
2022-09-24T06:01:56.948Z,14.7
2022-09-24T06:03:00.737Z,14.7
2022-09-24T06:04:09.704Z,14.7
2022-09-24T06:05:12.897Z,14.7
2022-09-24T06:06:16.268Z,14.8
2022-09-24T06:07:19.063Z,14.8
2022-09-24T06:08:22.363Z,14.8
2022-09-24T06:09:25.147Z,14.8
2022-09-24T06:10:27.781Z,14.8
2022-09-24T06:11:31.205Z,14.8
2022-09-24T06:12:42.888Z,14.8
2022-09-24T06:13:45.495Z,14.8
2022-09-24T06:14:48.556Z,14.8
2022-09-24T06:15:52.411Z,14.8
2022-09-24T06:16:55.969Z,14.8
2022-09-24T06:17:59.313Z,14.8
2022-09-24T06:19:03.137Z,14.8
2022-09-24T06:20:07.032Z,14.9
2022-09-24T06:21:10.240Z,14.9
2022-09-24T06:22:13.096Z,14.9
2022-09-24T06:23:15.865Z,14.9
2022-09-24T06:24:18.578Z,14.9
2022-09-24T06:25:21.296Z,14.9
2022-09-24T06:26:24.681Z,15
2022-09-24T06:27:27.951Z,14.9
2022-09-24T06:28:31.220Z,15
2022-09-24T06:29:34.282Z,15
2022-09-24T06:30:37.706Z,15
2022-09-24T06:31:41.225Z,15
2022-09-24T06:32:44.350Z,15
2022-09-24T06:33:47.068Z,15.1
2022-09-24T06:34:52.387Z,15.1
2022-09-24T06:36:02.518Z,15.1
2022-09-24T06:37:04.581Z,15.1
2022-09-24T06:38:07.922Z,15.1
2022-09-24T06:39:10.532Z,15.1
2022-09-24T06:40:14.433Z,15.2
2022-09-24T06:41:18.048Z,15.2
2022-09-24T06:42:21.150Z,15.2
2022-09-24T06:43:24.867Z,15.2
2022-09-24T06:44:27.667Z,15.2
2022-09-24T06:45:31.044Z,15.2
2022-09-24T06:46:34.794Z,15.2
2022-09-24T06:47:37.851Z,15.2
2022-09-24T06:48:40.736Z,15.2
2022-09-24T06:49:43.337Z,15.2
2022-09-24T06:50:46.855Z,15.2
2022-09-24T06:51:50.411Z,15.3
2022-09-24T06:52:52.878Z,15.3
2022-09-24T06:53:55.895Z,15.3
2022-09-24T06:54:58.958Z,15.3
2022-09-24T06:56:01.951Z,15.3
2022-09-24T06:57:04.392Z,15.3
2022-09-24T06:58:08.149Z,15.3
2022-09-24T06:59:11.482Z,15.3
2022-09-24T07:00:14.372Z,15.4
2022-09-24T07:01:18.103Z,15.4
2022-09-24T07:02:21.540Z,15.4
2022-09-24T07:03:24.564Z,15.4
2022-09-24T07:04:27.829Z,15.4
2022-09-24T07:05:31.177Z,15.4
2022-09-24T07:06:34.972Z,15.4
2022-09-24T07:07:38.738Z,15.4
2022-09-24T07:08:41.614Z,15.4
2022-09-24T07:09:44.887Z,15.5
2022-09-24T07:10:47.677Z,15.5
2022-09-24T07:11:49.923Z,15.5
2022-09-24T07:12:53.094Z,15.6
2022-09-24T07:13:56.385Z,15.6
2022-09-24T07:14:59.554Z,15.6
2022-09-24T07:16:02.982Z,15.6
2022-09-24T07:17:06.113Z,15.6
2022-09-24T07:18:09.173Z,15.7
2022-09-24T07:19:13.000Z,15.7
2022-09-24T07:20:16.181Z,15.7
2022-09-24T07:21:19.904Z,15.7
2022-09-24T07:22:23.304Z,15.8
2022-09-24T07:23:26.991Z,15.8
2022-09-24T07:24:30.728Z,15.8
2022-09-24T07:25:33.980Z,15.8
2022-09-24T07:26:37.597Z,15.8
2022-09-24T07:27:40.121Z,15.8
2022-09-24T07:28:42.930Z,15.9
2022-09-24T07:29:46.314Z,15.9
2022-09-24T07:30:49.305Z,15.9
2022-09-24T07:31:52.227Z,15.9
2022-09-24T07:32:54.741Z,16
2022-09-24T07:33:57.736Z,16
2022-09-24T07:35:00.835Z,16
2022-09-24T07:36:03.548Z,16
2022-09-24T07:37:06.894Z,16
2022-09-24T07:38:10.311Z,16
2022-09-24T07:39:14.148Z,16.1
2022-09-24T07:40:17.078Z,16.1
2022-09-24T07:41:20.237Z,16.1
2022-09-24T07:42:23.180Z,16.1
2022-09-24T07:43:26.858Z,16.1
2022-09-24T07:44:29.745Z,16.1
2022-09-24T07:45:32.678Z,16.2
2022-09-24T07:46:36.107Z,16.2
2022-09-24T07:47:39.611Z,16.2
2022-09-24T07:48:42.788Z,16.2
2022-09-24T07:49:45.451Z,16.2
2022-09-24T07:50:49.465Z,16.2
2022-09-24T07:51:52.911Z,16.3
2022-09-24T07:52:56.028Z,16.2
2022-09-24T07:53:59.411Z,16.3
2022-09-24T07:55:03.119Z,16.3
2022-09-24T07:56:06.496Z,16.3
2022-09-24T07:57:09.567Z,16.3
2022-09-24T07:58:12.102Z,16.3
2022-09-24T07:59:15.094Z,16.3
2022-09-24T08:00:17.419Z,16.3
2022-09-24T08:01:20.598Z,16.3
2022-09-24T08:02:24.189Z,16.3
2022-09-24T08:03:27.539Z,16.3
2022-09-24T08:04:30.751Z,16.3
2022-09-24T08:05:33.940Z,16.4
2022-09-24T08:06:47.738Z,16.4
2022-09-24T08:07:50.839Z,16.4
2022-09-24T08:08:53.564Z,16.4
2022-09-24T08:09:56.990Z,16.4
2022-09-24T08:11:01.063Z,16.4
2022-09-24T08:12:04.040Z,16.4
2022-09-24T08:13:06.368Z,16.4
2022-09-24T08:14:09.941Z,16.4
2022-09-24T08:15:13.782Z,16.4
2022-09-24T08:16:16.660Z,16.4
2022-09-24T08:17:20.003Z,16.4
2022-09-24T08:18:23.345Z,16.4
2022-09-24T08:19:25.957Z,16.4
2022-09-24T08:20:28.501Z,16.5
2022-09-24T08:21:31.769Z,16.5
2022-09-24T08:22:35.230Z,16.5
2022-09-24T08:23:38.562Z,16.5
2022-09-24T08:24:41.700Z,16.5
2022-09-24T08:25:44.507Z,16.5
2022-09-24T08:26:48.388Z,16.5
2022-09-24T08:27:51.574Z,16.5
2022-09-24T08:28:54.936Z,16.5
2022-09-24T08:29:57.734Z,16.6
2022-09-24T08:31:00.815Z,16.6
2022-09-24T08:32:03.429Z,16.6
2022-09-24T08:33:06.249Z,16.6
2022-09-24T08:34:09.891Z,16.6
2022-09-24T08:35:13.446Z,16.6
2022-09-24T08:36:16.157Z,16.7
2022-09-24T08:37:18.411Z,16.7
2022-09-24T08:38:21.500Z,16.7
2022-09-24T08:39:24.661Z,16.8
2022-09-24T08:40:27.775Z,16.8
2022-09-24T08:41:31.253Z,16.8
2022-09-24T08:42:35.302Z,16.8
2022-09-24T08:43:38.194Z,16.8
2022-09-24T08:44:41.098Z,16.9
2022-09-24T08:45:43.410Z,16.9
2022-09-24T08:46:47.155Z,16.9
2022-09-24T08:47:50.557Z,17
2022-09-24T08:48:53.089Z,17
2022-09-24T08:49:55.637Z,17
2022-09-24T08:50:58.553Z,17
2022-09-24T08:52:01.992Z,17
2022-09-24T08:53:04.711Z,17.1
2022-09-24T08:54:07.781Z,17.1
2022-09-24T08:55:10.864Z,17.1
2022-09-24T08:56:13.675Z,17.1
2022-09-24T08:57:17.205Z,17.1
2022-09-24T08:58:21.077Z,17.2
2022-09-24T08:59:24.826Z,17.2
2022-09-24T09:00:28.646Z,17.2
2022-09-24T09:01:31.860Z,17.2
2022-09-24T09:02:35.814Z,17.2
2022-09-24T09:03:39.354Z,17.2
2022-09-24T09:04:42.456Z,17.3
2022-09-24T09:05:50.038Z,17.3
2022-09-24T09:06:53.190Z,17.3
2022-09-24T09:07:56.568Z,17.3
2022-09-24T09:09:08.638Z,17.4
2022-09-24T09:10:11.673Z,17.4
2022-09-24T09:11:14.849Z,17.4
2022-09-24T09:12:18.513Z,17.4
2022-09-24T09:13:21.688Z,17.4
2022-09-24T09:14:32.250Z,17.4
2022-09-24T09:15:44.367Z,17.4
2022-09-24T09:16:48.137Z,17.4
2022-09-24T09:17:51.195Z,17.4
2022-09-24T09:18:53.812Z,17.5
2022-09-24T09:19:56.547Z,17.4
2022-09-24T09:20:59.386Z,17.5
2022-09-24T09:22:02.188Z,17.5
2022-09-24T09:23:05.356Z,17.5
2022-09-24T09:24:08.873Z,17.5
2022-09-24T09:25:11.689Z,17.6
2022-09-24T09:26:14.751Z,17.6
2022-09-24T09:27:17.855Z,17.6
2022-09-24T09:28:20.927Z,17.6
2022-09-24T09:29:23.548Z,17.5
2022-09-24T09:30:27.484Z,17.6
2022-09-24T09:31:30.764Z,17.6
2022-09-24T09:32:33.844Z,17.6
2022-09-24T09:33:36.845Z,17.6
2022-09-24T09:34:40.650Z,17.6
2022-09-24T09:35:43.731Z,17.6
2022-09-24T09:36:46.724Z,17.6
2022-09-24T09:37:49.462Z,17.6
2022-09-24T09:38:51.893Z,17.7
2022-09-24T09:39:55.073Z,17.7
2022-09-24T09:40:57.835Z,17.7
2022-09-24T09:42:01.948Z,17.7
2022-09-24T09:43:04.481Z,17.7
2022-09-24T09:44:07.741Z,17.7
2022-09-24T09:45:10.720Z,17.8
2022-09-24T09:46:15.137Z,17.8
2022-09-24T09:47:18.887Z,17.8
2022-09-24T09:48:21.993Z,17.8
2022-09-24T09:49:24.870Z,17.8
2022-09-24T09:50:28.027Z,17.8
2022-09-24T09:51:31.140Z,17.8
2022-09-24T09:52:34.031Z,17.9
2022-09-24T09:53:37.202Z,17.9
2022-09-24T09:54:40.345Z,17.9
2022-09-24T09:55:43.244Z,17.9
2022-09-24T09:56:46.982Z,17.9
2022-09-24T09:57:51.005Z,17.9
2022-09-24T09:58:53.537Z,17.9
2022-09-24T09:59:56.350Z,17.9
2022-09-24T10:00:59.092Z,17.9
2022-09-24T10:02:03.008Z,17.9
2022-09-24T10:03:07.264Z,18
2022-09-24T10:04:11.022Z,18
2022-09-24T10:05:27.334Z,18
2022-09-24T10:06:31.579Z,18
2022-09-24T10:07:35.089Z,18
2022-09-24T10:08:38.072Z,18
2022-09-24T10:09:40.661Z,18
2022-09-24T10:10:43.124Z,18
2022-09-24T10:11:46.035Z,18.1
2022-09-24T10:12:49.175Z,18.1
2022-09-24T10:13:52.273Z,18.1
2022-09-24T10:14:55.096Z,18.1
2022-09-24T10:15:59.113Z,18.1
2022-09-24T10:17:01.662Z,18.2
2022-09-24T10:18:05.269Z,18.2
2022-09-24T10:19:08.356Z,18.2
2022-09-24T10:20:11.156Z,18.3
2022-09-24T10:21:14.253Z,18.3
2022-09-24T10:22:17.333Z,18.3
2022-09-24T10:23:20.511Z,18.3
2022-09-24T10:24:23.234Z,18.4
2022-09-24T10:25:26.104Z,18.4
2022-09-24T10:26:29.030Z,18.5
2022-09-24T10:27:31.748Z,18.5
2022-09-24T10:28:35.191Z,18.5
2022-09-24T10:29:37.999Z,18.5
2022-09-24T10:30:41.145Z,18.5
2022-09-24T10:31:44.622Z,18.5
2022-09-24T10:32:48.095Z,18.5
2022-09-24T10:33:52.248Z,18.5
2022-09-24T10:34:55.167Z,18.5
2022-09-24T10:35:58.237Z,18.6
2022-09-24T10:37:00.715Z,18.6
2022-09-24T10:38:06.193Z,18.6
2022-09-24T10:39:09.090Z,18.6
2022-09-24T10:40:12.423Z,18.7
2022-09-24T10:41:15.644Z,18.7
2022-09-24T10:42:18.752Z,18.8
2022-09-24T10:43:21.740Z,18.8
2022-09-24T10:44:24.457Z,18.9
2022-09-24T10:45:27.173Z,19
2022-09-24T10:46:30.622Z,19
2022-09-24T10:47:33.803Z,19.1
2022-09-24T10:48:36.815Z,19.1
2022-09-24T10:49:40.602Z,19.1
2022-09-24T10:50:44.248Z,19.1
2022-09-24T10:51:47.029Z,19.1
2022-09-24T10:52:50.013Z,19.2
2022-09-24T10:53:53.755Z,19.2
2022-09-24T10:54:57.214Z,19.2
2022-09-24T10:56:00.071Z,19.2
2022-09-24T10:57:03.223Z,19.1
2022-09-24T10:58:06.030Z,19.2
2022-09-24T10:59:08.931Z,19.1
2022-09-24T11:00:12.104Z,19.1
2022-09-24T11:01:14.735Z,19.1
2022-09-24T11:02:19.042Z,19.1
2022-09-24T11:03:22.579Z,19.1
2022-09-24T11:04:26.170Z,19.1
2022-09-24T11:05:29.975Z,19.1
2022-09-24T11:06:32.602Z,19.1
2022-09-24T11:07:35.390Z,19.1
2022-09-24T11:08:38.777Z,19.1
2022-09-24T11:09:41.862Z,19.1
2022-09-24T11:10:45.594Z,19
2022-09-24T11:11:48.396Z,19
2022-09-24T11:12:51.275Z,19
2022-09-24T11:13:53.788Z,18.9
2022-09-24T11:14:56.003Z,18.9
2022-09-24T11:15:58.986Z,18.9
2022-09-24T11:17:02.927Z,18.9
2022-09-24T11:18:05.583Z,18.8
2022-09-24T11:19:08.664Z,18.8
2022-09-24T11:20:11.948Z,18.8
2022-09-24T11:21:16.053Z,18.8
2022-09-24T11:22:19.410Z,18.7
2022-09-24T11:23:22.402Z,18.7
2022-09-24T11:24:25.299Z,18.7
2022-09-24T11:25:28.450Z,18.7
2022-09-24T11:26:30.875Z,18.6
2022-09-24T11:27:34.023Z,18.6
2022-09-24T11:28:36.757Z,18.6
2022-09-24T11:29:39.280Z,18.6
2022-09-24T11:30:42.445Z,18.6
2022-09-24T11:31:45.627Z,18.6
2022-09-24T11:32:48.763Z,18.6
2022-09-24T11:33:51.638Z,18.6
2022-09-24T11:34:54.749Z,18.6
2022-09-24T11:35:57.650Z,18.5
2022-09-24T11:37:01.304Z,18.5
2022-09-24T11:38:04.944Z,18.6
2022-09-24T11:39:08.027Z,18.5
2022-09-24T11:40:11.189Z,18.5
2022-09-24T11:41:14.751Z,18.5
2022-09-24T11:42:17.675Z,18.5
2022-09-24T11:43:21.399Z,18.5
2022-09-24T11:44:25.054Z,18.5
2022-09-24T11:45:27.852Z,18.5
2022-09-24T11:46:31.383Z,18.5
2022-09-24T11:47:33.899Z,18.5
2022-09-24T11:48:37.712Z,18.5
2022-09-24T11:49:41.003Z,18.5
2022-09-24T11:50:48.727Z,18.5
2022-09-24T11:51:51.574Z,18.4
2022-09-24T11:52:55.831Z,18.4
2022-09-24T11:53:58.798Z,18.4
2022-09-24T11:55:01.694Z,18.3
2022-09-24T11:56:13.648Z,18.3
2022-09-24T11:57:17.222Z,18.3
2022-09-24T11:58:20.883Z,18.3
2022-09-24T11:59:23.696Z,18.2
2022-09-24T12:00:26.879Z,18.1
2022-09-24T12:01:30.639Z,18.1
2022-09-24T12:02:34.269Z,18.1
2022-09-24T12:03:38.237Z,18
2022-09-24T12:04:42.013Z,18
2022-09-24T12:05:44.823Z,18
2022-09-24T12:06:47.630Z,18
2022-09-24T12:07:50.150Z,18
2022-09-24T12:08:54.340Z,17.9
2022-09-24T12:09:57.503Z,17.9
2022-09-24T12:10:59.905Z,17.9
2022-09-24T12:12:03.015Z,17.9
2022-09-24T12:13:06.088Z,17.9
2022-09-24T12:14:09.559Z,17.9
2022-09-24T12:15:12.602Z,17.9
2022-09-24T12:16:15.705Z,17.9
2022-09-24T12:17:19.034Z,17.9
2022-09-24T12:18:21.755Z,17.8
2022-09-24T12:19:24.017Z,17.8
2022-09-24T12:20:27.729Z,17.8
2022-09-24T12:21:30.795Z,17.8
2022-09-24T12:22:33.895Z,17.8
2022-09-24T12:23:36.851Z,17.8
2022-09-24T12:24:40.463Z,17.8
2022-09-24T12:25:43.821Z,17.8
2022-09-24T12:26:46.713Z,17.8
2022-09-24T12:27:50.153Z,17.8
2022-09-24T12:28:52.946Z,17.8
2022-09-24T12:29:55.951Z,17.8
2022-09-24T12:30:59.496Z,17.7
2022-09-24T12:32:03.001Z,17.7
2022-09-24T12:33:06.078Z,17.7
2022-09-24T12:34:09.266Z,17.7
2022-09-24T12:35:12.852Z,17.7
2022-09-24T12:36:16.009Z,17.7
2022-09-24T12:37:19.453Z,17.6
2022-09-24T12:38:22.832Z,17.6
2022-09-24T12:39:25.893Z,17.6
2022-09-24T12:40:29.653Z,17.5
2022-09-24T12:41:33.526Z,17.5
2022-09-24T12:42:36.143Z,17.5
2022-09-24T12:43:38.307Z,17.4
2022-09-24T12:44:41.298Z,17.4
2022-09-24T12:45:45.010Z,17.4
2022-09-24T12:46:47.897Z,17.4
2022-09-24T12:47:51.107Z,17.4
2022-09-24T12:48:54.573Z,17.3
2022-09-24T12:49:57.568Z,17.3
2022-09-24T12:51:00.722Z,17.3
2022-09-24T12:52:03.454Z,17.3
2022-09-24T12:53:06.606Z,17.3
2022-09-24T12:54:10.001Z,17.3
2022-09-24T12:55:12.648Z,17.3
2022-09-24T12:56:16.516Z,17.2
2022-09-24T12:57:26.834Z,17.3
2022-09-24T12:58:30.121Z,17.2
2022-09-24T12:59:33.601Z,17.3
2022-09-24T13:00:37.300Z,17.2
2022-09-24T13:01:41.025Z,17.2
2022-09-24T13:02:45.161Z,17.2
2022-09-24T13:03:48.807Z,17.2
2022-09-24T13:04:52.266Z,17.2
2022-09-24T13:05:55.255Z,17.2
2022-09-24T13:06:58.607Z,17.1
2022-09-24T13:08:02.079Z,17.1
2022-09-24T13:09:05.322Z,17.1
2022-09-24T13:10:08.301Z,17.1
2022-09-24T13:11:11.457Z,17
2022-09-24T13:12:15.031Z,17
2022-09-24T13:13:17.852Z,17
2022-09-24T13:14:21.586Z,17
2022-09-24T13:15:28.864Z,16.9
2022-09-24T13:16:31.244Z,16.9
2022-09-24T13:17:35.545Z,16.8
2022-09-24T13:18:38.424Z,16.8
2022-09-24T13:19:41.373Z,16.8
2022-09-24T13:20:50.991Z,16.8
2022-09-24T13:21:54.065Z,16.7
2022-09-24T13:22:57.813Z,16.7
2022-09-24T13:24:01.230Z,16.7
2022-09-24T13:25:04.103Z,16.7
2022-09-24T13:26:07.109Z,16.6
2022-09-24T13:27:10.492Z,16.6
2022-09-24T13:28:14.477Z,16.6
2022-09-24T13:29:17.945Z,16.6
2022-09-24T13:30:20.993Z,16.6
2022-09-24T13:31:24.547Z,16.6
2022-09-24T13:32:27.909Z,16.7
2022-09-24T13:33:31.662Z,16.6
2022-09-24T13:34:34.651Z,16.6
2022-09-24T13:35:37.519Z,16.6
2022-09-24T13:36:40.565Z,16.6
2022-09-24T13:37:44.301Z,16.6
2022-09-24T13:38:47.025Z,16.5
2022-09-24T13:39:50.171Z,16.5
2022-09-24T13:40:53.488Z,16.5
2022-09-24T13:41:57.077Z,16.5
2022-09-24T13:43:00.369Z,16.5
2022-09-24T13:44:04.073Z,16.5
2022-09-24T13:45:10.608Z,16.5
2022-09-24T13:46:13.767Z,16.5
2022-09-24T13:47:17.112Z,16.5
2022-09-24T13:48:20.124Z,16.5
2022-09-24T13:49:23.103Z,16.5
2022-09-24T13:50:25.758Z,16.5
2022-09-24T13:51:28.548Z,16.5
2022-09-24T13:52:30.976Z,16.5
2022-09-24T13:53:34.261Z,16.4
2022-09-24T13:54:37.273Z,16.4
2022-09-24T13:55:40.549Z,16.4
2022-09-24T13:56:43.896Z,16.4
2022-09-24T13:57:47.317Z,16.4
2022-09-24T13:58:50.915Z,16.4
2022-09-24T13:59:54.371Z,16.4
2022-09-24T14:00:57.852Z,16.4
2022-09-24T14:02:01.103Z,16.4
2022-09-24T14:03:03.835Z,16.3
2022-09-24T14:04:07.286Z,16.3
2022-09-24T14:05:11.133Z,16.3
2022-09-24T14:06:14.332Z,16.3
2022-09-24T14:07:17.546Z,16.3
2022-09-24T14:08:21.763Z,16.3
2022-09-24T14:09:25.582Z,16.3